createdAt,value
2023-02-22T00:01:23.035Z,13.40
2023-02-22T00:03:53.464Z,13.40
2023-02-22T00:06:25.053Z,13.30
2023-02-22T00:08:55.808Z,13.40
2023-02-22T00:11:24.892Z,13.40
2023-02-22T00:13:58.373Z,13.40
2023-02-22T00:16:27.551Z,13.50
2023-02-22T00:18:56.478Z,13.40
2023-02-22T00:21:24.479Z,13.40
2023-02-22T00:23:57.336Z,13.20
2023-02-22T00:26:25.639Z,13.30
2023-02-22T00:28:54.992Z,13.30
2023-02-22T00:31:25.893Z,13.10
2023-02-22T00:33:54.366Z,13.20
2023-02-22T00:36:22.372Z,13.20
2023-02-22T00:38:50.888Z,13.10
2023-02-22T00:41:20.933Z,13.10
2023-02-22T00:43:52.204Z,13.00
2023-02-22T00:46:20.725Z,13.10
2023-02-22T00:48:51.644Z,13.00
2023-02-22T00:51:19.757Z,13.00
2023-02-22T00:53:50.958Z,13.00
2023-02-22T00:56:20.494Z,13.20
2023-02-22T00:58:49.419Z,13.10
2023-02-22T01:01:17.909Z,13.20
2023-02-22T01:03:47.067Z,13.20
2023-02-22T01:06:15.066Z,13.10
2023-02-22T01:08:46.014Z,13.20
2023-02-22T01:11:16.087Z,13.10
2023-02-22T01:13:46.151Z,13.10
2023-02-22T01:16:15.943Z,13.00
2023-02-22T01:18:44.031Z,13.00
2023-02-22T01:21:12.301Z,12.90
2023-02-22T01:23:45.281Z,13.00
2023-02-22T01:26:13.388Z,12.70
2023-02-22T01:28:42.213Z,12.80
2023-02-22T01:31:14.347Z,12.80
2023-02-22T01:33:46.106Z,12.90
2023-02-22T01:36:15.376Z,12.60
2023-02-22T01:38:45.769Z,12.50
2023-02-22T01:41:15.558Z,12.70
2023-02-22T01:43:43.895Z,12.60
2023-02-22T01:46:26.907Z,12.60
2023-02-22T01:49:01.153Z,12.60
2023-02-22T01:51:37.973Z,12.70
2023-02-22T01:54:09.968Z,12.60
2023-02-22T01:56:43.212Z,12.50
2023-02-22T01:59:14.114Z,12.60
2023-02-22T02:01:44.985Z,12.50
2023-02-22T02:04:17.671Z,12.80
2023-02-22T02:06:52.585Z,12.70
2023-02-22T02:09:30.037Z,12.70
2023-02-22T02:12:03.096Z,12.80
2023-02-22T02:14:32.789Z,12.80
2023-02-22T02:17:03.221Z,12.70
2023-02-22T02:19:45.144Z,12.80
2023-02-22T02:22:25.941Z,12.80
2023-02-22T02:25:28.720Z,12.90
2023-02-22T02:28:19.221Z,13.00
2023-02-22T02:31:09.876Z,12.80
2023-02-22T02:33:46.761Z,12.90
2023-02-22T02:36:21.376Z,12.90
2023-02-22T02:39:00.516Z,13.00
2023-02-22T02:41:35.645Z,12.90
2023-02-22T02:44:10.207Z,13.00
2023-02-22T02:46:45.547Z,13.10
2023-02-22T02:49:20.799Z,13.00
2023-02-22T02:51:55.843Z,12.70
2023-02-22T02:54:26.128Z,12.80
2023-02-22T02:56:55.683Z,12.80
2023-02-22T02:59:28.956Z,12.70
2023-02-22T03:02:31.687Z,12.60
2023-02-22T03:08:34.130Z,12.80
2023-02-22T03:11:15.714Z,12.60
2023-02-22T03:13:56.405Z,12.60
2023-02-22T03:16:34.177Z,12.70
2023-02-22T03:19:10.186Z,12.70
2023-02-22T03:21:48.446Z,12.60
2023-02-22T03:24:23.252Z,12.70
2023-02-22T03:26:58.884Z,12.60
2023-02-22T03:29:29.606Z,12.80
2023-02-22T03:32:01.335Z,12.60
2023-02-22T03:34:37.181Z,12.50
2023-02-22T03:37:16.178Z,12.60
2023-02-22T03:39:49.296Z,12.70
2023-02-22T03:42:22.618Z,12.60
2023-02-22T03:44:54.733Z,12.50
2023-02-22T03:47:29.567Z,12.40
2023-02-22T03:50:07.245Z,12.50
2023-02-22T03:52:39.450Z,12.50
2023-02-22T03:55:13.755Z,12.50
2023-02-22T03:57:47.474Z,12.40
2023-02-22T04:00:21.486Z,12.40
2023-02-22T04:02:52.855Z,12.50
2023-02-22T04:05:24.761Z,12.60
2023-02-22T04:07:57.820Z,12.60
2023-02-22T04:10:27.511Z,12.50
2023-02-22T04:12:55.948Z,12.30
2023-02-22T04:15:26.059Z,12.40
2023-02-22T04:17:59.819Z,12.50
2023-02-22T04:20:28.706Z,12.30
2023-02-22T04:23:01.715Z,12.30
2023-02-22T04:25:32.816Z,12.50
2023-02-22T04:28:13.315Z,12.40
2023-02-22T04:30:48.087Z,12.50
2023-02-22T04:33:19.060Z,12.20
2023-02-22T04:35:48.828Z,12.10
2023-02-22T04:38:18.283Z,12.00
2023-02-22T04:40:46.854Z,12.00
2023-02-22T04:43:16.389Z,12.00
2023-02-22T04:45:45.035Z,12.10
2023-02-22T04:48:14.868Z,12.30
2023-02-22T04:50:43.210Z,12.30
2023-02-22T04:53:12.095Z,12.30
2023-02-22T04:55:42.339Z,12.20
2023-02-22T04:58:11.149Z,11.90
2023-02-22T05:00:39.370Z,11.70
2023-02-22T05:03:08.851Z,11.70
2023-02-22T05:05:37.341Z,11.70
2023-02-22T05:08:05.620Z,11.60
2023-02-22T05:10:33.861Z,11.50
2023-02-22T05:13:04.326Z,11.50
2023-02-22T05:15:32.580Z,11.50
2023-02-22T05:18:01.038Z,11.50
2023-02-22T05:20:33.860Z,11.60
2023-02-22T05:23:04.068Z,11.60
2023-02-22T05:25:34.076Z,11.40
2023-02-22T05:28:07.294Z,11.10
2023-02-22T05:30:39.964Z,10.80
2023-02-22T05:33:08.819Z,10.80
2023-02-22T05:35:37.536Z,11.10
2023-02-22T05:38:09.352Z,11.10
2023-02-22T05:40:37.370Z,11.20
2023-02-22T05:43:07.871Z,11.30
2023-02-22T05:45:38.298Z,11.20
2023-02-22T05:48:06.665Z,11.30
2023-02-22T05:50:36.060Z,11.30
2023-02-22T05:53:05.946Z,11.10
2023-02-22T05:55:35.472Z,10.80
2023-02-22T05:58:06.207Z,10.80
2023-02-22T06:00:35.912Z,11.00
2023-02-22T06:03:08.218Z,11.00
2023-02-22T06:05:40.913Z,11.10
2023-02-22T06:08:10.873Z,11.30
2023-02-22T06:10:38.873Z,11.30
2023-02-22T06:13:11.062Z,11.40
2023-02-22T06:15:40.436Z,11.70
2023-02-22T06:18:08.676Z,11.60
2023-02-22T06:20:36.685Z,11.60
2023-02-22T06:23:05.862Z,11.70
2023-02-22T06:25:34.420Z,11.60
2023-02-22T06:28:03.010Z,11.50
2023-02-22T06:30:32.074Z,11.50
2023-02-22T06:33:01.853Z,11.60
2023-02-22T06:35:29.836Z,11.70
2023-02-22T06:37:59.291Z,11.40
2023-02-22T06:40:30.915Z,11.40
2023-02-22T06:43:00.382Z,11.40
2023-02-22T06:45:28.609Z,11.30
2023-02-22T06:47:56.687Z,11.30
2023-02-22T06:50:35.693Z,11.30
2023-02-22T06:53:05.906Z,11.20
2023-02-22T06:55:35.058Z,11.30
2023-02-22T06:58:06.164Z,11.50
2023-02-22T07:00:34.401Z,11.70
2023-02-22T07:03:05.572Z,11.50
2023-02-22T07:05:35.133Z,11.60
2023-02-22T07:08:09.849Z,11.70
2023-02-22T07:10:39.295Z,11.70
2023-02-22T07:13:08.862Z,11.50
2023-02-22T07:15:37.874Z,11.60
2023-02-22T07:18:06.148Z,11.70
2023-02-22T07:20:36.181Z,11.50
2023-02-22T07:23:07.213Z,11.40
2023-02-22T07:25:36.008Z,11.60
2023-02-22T07:28:03.998Z,11.60
2023-02-22T07:30:34.860Z,11.60
2023-02-22T07:33:07.155Z,11.60
2023-02-22T07:35:39.830Z,11.70
2023-02-22T07:38:08.962Z,11.70
2023-02-22T07:40:41.917Z,11.80
2023-02-22T07:43:19.392Z,12.00
2023-02-22T07:45:50.775Z,11.80
2023-02-22T07:48:20.402Z,11.80
2023-02-22T07:50:50.781Z,11.80
2023-02-22T07:53:21.462Z,12.00
2023-02-22T07:55:52.210Z,12.00
2023-02-22T07:58:24.221Z,12.10
2023-02-22T08:00:53.193Z,11.70
2023-02-22T08:03:24.405Z,11.70
2023-02-22T08:05:56.039Z,11.80
2023-02-22T08:08:25.425Z,12.00
2023-02-22T08:10:53.873Z,11.90
2023-02-22T08:13:23.019Z,12.00
2023-02-22T08:15:52.822Z,12.10
2023-02-22T08:18:21.886Z,12.30
2023-02-22T08:20:52.064Z,12.30
2023-02-22T08:23:23.433Z,12.10
2023-02-22T08:25:52.011Z,12.10
2023-02-22T08:28:23.309Z,12.10
2023-02-22T08:30:52.512Z,12.00
2023-02-22T08:33:21.273Z,12.10
2023-02-22T08:35:50.432Z,12.20
2023-02-22T08:38:23.142Z,12.30
2023-02-22T08:40:52.167Z,12.30
2023-02-22T08:43:21.055Z,12.40
2023-02-22T08:45:52.295Z,12.40
2023-02-22T08:48:21.471Z,12.50
2023-02-22T08:50:49.892Z,12.80
2023-02-22T08:53:18.319Z,12.70
2023-02-22T08:55:50.054Z,12.70
2023-02-22T08:58:18.108Z,12.70
2023-02-22T09:00:46.451Z,12.80
2023-02-22T09:03:16.347Z,13.00
2023-02-22T09:05:44.607Z,13.10
2023-02-22T09:08:12.891Z,13.10
2023-02-22T09:10:41.725Z,13.20
2023-02-22T09:13:12.994Z,13.20
2023-02-22T09:15:43.154Z,13.30
2023-02-22T09:18:15.167Z,13.30
2023-02-22T09:20:43.216Z,13.30
2023-02-22T09:23:21.519Z,13.30
2023-02-22T09:25:49.818Z,13.30
2023-02-22T09:28:20.084Z,13.40
2023-02-22T09:30:48.310Z,13.40
2023-02-22T09:33:19.774Z,13.50
2023-02-22T09:35:49.771Z,13.40
2023-02-22T09:38:19.952Z,13.40
2023-02-22T09:40:51.686Z,13.40
2023-02-22T09:43:33.692Z,13.50
2023-02-22T09:46:13.907Z,13.60
2023-02-22T09:48:58.166Z,13.70
2023-02-22T09:51:29.876Z,13.80
2023-02-22T09:54:01.878Z,13.80
2023-02-22T09:56:36.068Z,14.00
2023-02-22T09:59:08.313Z,14.10
2023-02-22T10:01:42.586Z,14.10
2023-02-22T10:04:18.557Z,14.20
2023-02-22T10:07:06.341Z,14.10
2023-02-22T10:09:42.957Z,14.10
2023-02-22T10:12:16.596Z,14.00
2023-02-22T10:15:22.407Z,14.10
2023-02-22T10:17:56.882Z,14.10
2023-02-22T10:20:42.091Z,14.20
2023-02-22T10:23:18.659Z,14.20
2023-02-22T10:25:53.425Z,14.20
2023-02-22T10:28:25.664Z,14.20
2023-02-22T10:30:59.480Z,14.20
2023-02-22T10:33:32.992Z,14.30
2023-02-22T10:36:01.459Z,14.20
2023-02-22T10:38:31.620Z,14.30
2023-02-22T10:41:03.821Z,14.50
2023-02-22T10:43:32.734Z,14.40
2023-02-22T10:46:06.110Z,14.40
2023-02-22T10:48:38.325Z,14.40
2023-02-22T10:51:13.783Z,14.60
2023-02-22T10:53:42.151Z,14.80
2023-02-22T10:56:16.058Z,14.90
2023-02-22T10:58:47.924Z,14.40
2023-02-22T11:04:18.933Z,14.80
2023-02-22T11:06:50.446Z,15.00
2023-02-22T11:09:22.771Z,15.30
2023-02-22T11:12:08.367Z,15.70
2023-02-22T11:14:36.602Z,15.80
2023-02-22T11:17:14.459Z,15.90
2023-02-22T11:19:48.597Z,15.70
2023-02-22T11:22:24.975Z,16.00
2023-02-22T11:24:57.868Z,16.30
2023-02-22T11:27:39.085Z,16.50
2023-02-22T11:30:29.467Z,16.60
2023-02-22T11:33:01.465Z,16.80
2023-02-22T11:35:39.653Z,16.80
2023-02-22T11:38:22.156Z,16.90
2023-02-22T11:41:09.489Z,17.30
2023-02-22T11:43:37.789Z,17.60
2023-02-22T11:46:10.716Z,17.50
2023-02-22T11:48:44.794Z,17.80
2023-02-22T11:51:35.019Z,17.20
2023-02-22T11:54:31.629Z,17.40
2023-02-22T11:57:10.174Z,17.50
2023-02-22T11:59:49.589Z,17.50
2023-02-22T12:02:32.747Z,17.90
2023-02-22T12:05:18.342Z,18.40
2023-02-22T12:08:18.954Z,19.20
2023-02-22T12:10:58.569Z,19.50
2023-02-22T12:13:40.555Z,19.80
2023-02-22T12:16:21.180Z,20.20
2023-02-22T12:19:09.492Z,19.50
2023-02-22T12:21:43.892Z,19.30
2023-02-22T12:24:16.726Z,19.60
2023-02-22T12:26:50.418Z,19.60
2023-02-22T12:29:26.522Z,19.80
2023-02-22T12:32:03.303Z,20.10
2023-02-22T12:34:36.135Z,20.10
2023-02-22T12:37:13.892Z,20.40
2023-02-22T12:39:54.307Z,20.40
2023-02-22T12:42:31.401Z,20.60
2023-02-22T12:45:08.359Z,20.80
2023-02-22T12:47:46.606Z,21.20
2023-02-22T12:50:21.191Z,21.80
2023-02-22T12:52:57.656Z,22.20
2023-02-22T12:55:32.492Z,22.40
2023-02-22T12:58:10.995Z,22.60
2023-02-22T13:00:45.632Z,22.10
2023-02-22T13:03:30.362Z,21.60
2023-02-22T13:06:19.059Z,21.70
2023-02-22T13:09:01.929Z,21.50
2023-02-22T13:11:37.858Z,21.30
2023-02-22T13:14:22.308Z,20.70
2023-02-22T13:16:58.411Z,20.80
2023-02-22T13:19:41.102Z,21.10
2023-02-22T13:22:17.757Z,20.90
2023-02-22T13:25:09.170Z,20.30
2023-02-22T13:27:44.127Z,20.20
2023-02-22T13:30:21.577Z,20.30
2023-02-22T13:33:17.091Z,20.10
2023-02-22T13:36:14.696Z,20.60
2023-02-22T13:39:27.839Z,20.50
2023-02-22T13:45:29.965Z,20.50
2023-02-22T13:48:21.395Z,20.30
2023-02-22T13:51:14.819Z,20.50
2023-02-22T13:53:49.837Z,20.40
2023-02-22T13:56:20.042Z,20.20
2023-02-22T13:58:54.293Z,20.00
2023-02-22T14:01:48.237Z,19.30
2023-02-22T14:04:46.370Z,19.20
2023-02-22T14:07:52.543Z,19.50
2023-02-22T14:10:48.676Z,19.50
2023-02-22T14:13:19.213Z,19.00
2023-02-22T14:16:20.904Z,18.70
2023-02-22T14:19:06.302Z,18.60
2023-02-22T14:21:36.328Z,18.50
2023-02-22T14:24:12.672Z,18.30
2023-02-22T14:26:42.023Z,18.40
2023-02-22T14:29:19.812Z,18.60
2023-02-22T14:32:14.012Z,18.70
2023-02-22T14:34:51.441Z,18.80
2023-02-22T14:37:24.807Z,18.80
2023-02-22T14:40:00.059Z,18.60
2023-02-22T14:42:34.387Z,18.30
2023-02-22T14:45:19.705Z,18.00
2023-02-22T14:48:01.832Z,18.00
2023-02-22T14:50:44.087Z,18.20
2023-02-22T14:53:23.147Z,18.50
2023-02-22T14:55:57.539Z,18.40
2023-02-22T14:58:31.802Z,18.50
2023-02-22T15:01:00.342Z,18.40
2023-02-22T15:03:33.080Z,18.10
2023-02-22T15:06:08.310Z,18.20
2023-02-22T15:08:41.526Z,18.10
2023-02-22T15:11:22.542Z,18.00
2023-02-22T15:13:52.858Z,18.00
2023-02-22T15:16:26.295Z,18.00
2023-02-22T15:18:56.470Z,18.10
2023-02-22T15:21:30.698Z,18.10
2023-02-22T15:24:01.741Z,17.70
2023-02-22T15:26:36.004Z,17.70
2023-02-22T15:29:13.321Z,17.90
2023-02-22T15:31:48.314Z,18.10
2023-02-22T15:34:24.650Z,17.90
2023-02-22T15:36:56.476Z,17.60
2023-02-22T15:39:31.064Z,17.40
2023-02-22T15:42:06.074Z,17.40
2023-02-22T15:44:40.546Z,17.50
2023-02-22T15:47:21.624Z,17.60
2023-02-22T15:50:21.022Z,17.60
2023-02-22T15:52:54.989Z,17.30
2023-02-22T15:55:26.883Z,17.00
2023-02-22T15:58:00.131Z,16.90
2023-02-22T16:00:36.228Z,16.50
2023-02-22T16:03:06.802Z,16.40
2023-02-22T16:05:40.496Z,16.00
2023-02-22T16:08:20.055Z,16.00
2023-02-22T16:10:54.467Z,16.60
2023-02-22T16:13:31.977Z,16.30
2023-02-22T16:16:03.104Z,16.30
2023-02-22T16:18:34.717Z,16.30
2023-02-22T16:21:06.332Z,16.20
2023-02-22T16:23:46.458Z,16.20
2023-02-22T16:26:30.202Z,16.00
2023-02-22T16:28:59.980Z,16.00
2023-02-22T16:31:29.721Z,16.10
2023-02-22T16:33:57.866Z,16.20
2023-02-22T16:36:38.836Z,16.00
2023-02-22T16:39:12.069Z,16.00
2023-02-22T16:41:40.127Z,15.80
2023-02-22T16:44:08.998Z,15.80
2023-02-22T16:46:38.311Z,15.90
2023-02-22T16:49:07.187Z,15.90
2023-02-22T16:51:41.977Z,15.70
2023-02-22T16:54:16.131Z,15.70
2023-02-22T16:56:44.269Z,15.60
2023-02-22T16:59:16.751Z,15.50
2023-02-22T17:01:44.905Z,15.70
2023-02-22T17:04:20.013Z,15.80
2023-02-22T17:06:50.068Z,15.70
2023-02-22T17:09:20.561Z,15.90
2023-02-22T17:11:51.120Z,15.90
2023-02-22T17:14:24.084Z,15.90
2023-02-22T17:16:52.557Z,15.90
2023-02-22T17:19:26.110Z,15.90
2023-02-22T17:21:54.964Z,15.90
2023-02-22T17:24:29.115Z,16.10
2023-02-22T17:26:59.210Z,16.00
2023-02-22T17:29:28.772Z,15.70
2023-02-22T17:31:57.003Z,15.80
2023-02-22T17:34:26.110Z,15.70
2023-02-22T17:36:54.117Z,15.80
2023-02-22T17:39:22.143Z,15.70
2023-02-22T17:41:57.937Z,15.40
2023-02-22T17:44:27.136Z,15.10
2023-02-22T17:46:55.170Z,15.20
2023-02-22T17:49:23.616Z,15.30
2023-02-22T17:51:53.079Z,15.10
2023-02-22T17:54:23.368Z,15.20
2023-02-22T17:56:52.732Z,15.20
2023-02-22T17:59:20.786Z,15.30
2023-02-22T18:01:49.282Z,15.40
2023-02-22T18:04:17.313Z,15.40
2023-02-22T18:06:47.109Z,15.50
2023-02-22T18:09:17.597Z,15.50
2023-02-22T18:11:46.545Z,15.20
2023-02-22T18:14:15.897Z,15.30
2023-02-22T18:16:48.148Z,15.40
2023-02-22T18:19:23.011Z,15.50
2023-02-22T18:21:52.347Z,15.50
2023-02-22T18:24:24.122Z,15.50
2023-02-22T18:26:53.142Z,15.50
2023-02-22T18:29:22.478Z,15.60
2023-02-22T18:31:53.662Z,15.60
2023-02-22T18:34:24.840Z,15.60
2023-02-22T18:36:53.999Z,15.40
2023-02-22T18:39:26.885Z,15.30
2023-02-22T18:41:56.620Z,15.30
2023-02-22T18:44:27.060Z,15.50
2023-02-22T18:46:56.194Z,15.60
2023-02-22T18:49:28.576Z,15.60
2023-02-22T18:51:56.618Z,15.70
2023-02-22T18:54:24.595Z,15.80
2023-02-22T18:56:54.073Z,15.60
2023-02-22T18:59:24.079Z,15.70
2023-02-22T19:01:54.277Z,15.70
2023-02-22T19:04:22.463Z,15.70
2023-02-22T19:06:50.432Z,15.60
2023-02-22T19:09:21.215Z,15.70
2023-02-22T19:11:51.206Z,15.70
2023-02-22T19:14:19.754Z,15.70
2023-02-22T19:16:51.090Z,15.60
2023-02-22T19:19:25.423Z,15.40
2023-02-22T19:21:56.502Z,15.30
2023-02-22T19:24:25.106Z,15.10
2023-02-22T19:27:00.121Z,14.90
2023-02-22T19:29:30.995Z,14.70
2023-02-22T19:31:59.478Z,14.60
2023-02-22T19:34:31.581Z,14.50
2023-02-22T19:37:01.302Z,14.30
2023-02-22T19:39:30.242Z,14.40
2023-02-22T19:41:59.837Z,14.10
2023-02-22T19:44:30.037Z,13.90
2023-02-22T19:46:58.107Z,13.50
2023-02-22T19:49:29.058Z,13.50
2023-02-22T19:52:02.203Z,13.50
2023-02-22T19:54:31.216Z,13.40
2023-02-22T19:56:59.555Z,13.20
2023-02-22T19:59:30.198Z,13.40
2023-02-22T20:01:58.307Z,13.30
2023-02-22T20:04:30.687Z,13.30
2023-02-22T20:07:00.028Z,13.30
2023-02-22T20:09:36.144Z,13.40
2023-02-22T20:12:08.572Z,13.10
2023-02-22T20:14:38.533Z,13.10
2023-02-22T20:17:08.137Z,13.10
2023-02-22T20:19:40.190Z,13.10
2023-02-22T20:22:09.162Z,13.20
2023-02-22T20:24:37.156Z,13.20
2023-02-22T20:27:06.338Z,13.10
2023-02-22T20:29:34.450Z,13.30
2023-02-22T20:32:06.000Z,13.20
2023-02-22T20:34:36.542Z,13.30
2023-02-22T20:37:08.206Z,13.50
2023-02-22T20:39:36.502Z,13.60
2023-02-22T20:42:06.717Z,13.90
2023-02-22T20:44:36.838Z,14.10
2023-02-22T20:47:05.050Z,14.10
2023-02-22T20:49:35.215Z,14.00
2023-02-22T20:52:03.376Z,14.10
2023-02-22T20:54:37.226Z,14.10
2023-02-22T20:57:08.004Z,13.60
2023-02-22T20:59:37.239Z,13.60
2023-02-22T21:02:06.632Z,13.50
2023-02-22T21:04:36.384Z,13.60
2023-02-22T21:07:04.415Z,13.60
2023-02-22T21:09:34.772Z,13.70
2023-02-22T21:12:04.315Z,13.70
2023-02-22T21:14:32.477Z,13.80
2023-02-22T21:17:03.739Z,13.90
2023-02-22T21:19:33.230Z,13.80
2023-02-22T21:22:08.234Z,13.70
2023-02-22T21:24:38.074Z,13.80
2023-02-22T21:27:07.291Z,13.80
2023-02-22T21:29:35.798Z,13.90
2023-02-22T21:32:04.726Z,13.70
2023-02-22T21:34:33.476Z,13.50
2023-02-22T21:37:02.277Z,13.40
2023-02-22T21:39:30.285Z,13.10
2023-02-22T21:42:01.371Z,13.10
2023-02-22T21:44:29.833Z,13.00
2023-02-22T21:46:58.136Z,13.00
2023-02-22T21:49:26.614Z,13.10
2023-02-22T21:51:54.643Z,13.20
2023-02-22T21:54:24.594Z,13.30
2023-02-22T21:56:55.152Z,13.20
2023-02-22T21:59:25.543Z,12.60
2023-02-22T22:01:58.568Z,12.40
2023-02-22T22:04:30.047Z,12.40
2023-02-22T22:07:04.160Z,12.40
2023-02-22T22:09:38.269Z,12.70
2023-02-22T22:12:07.394Z,12.80
2023-02-22T22:14:38.757Z,13.00
2023-02-22T22:17:09.251Z,12.90
2023-02-22T22:19:40.797Z,13.00
2023-02-22T22:22:10.536Z,13.10
2023-02-22T22:24:41.949Z,13.10
2023-02-22T22:27:12.739Z,12.80
2023-02-22T22:29:43.385Z,12.80
2023-02-22T22:32:11.769Z,12.70
2023-02-22T22:34:43.552Z,12.80
2023-02-22T22:37:13.535Z,12.60
2023-02-22T22:39:42.346Z,12.80
2023-02-22T22:42:11.405Z,13.00
2023-02-22T22:44:41.912Z,13.10
2023-02-22T22:47:13.102Z,13.10
2023-02-22T22:49:42.999Z,13.10
2023-02-22T22:52:19.283Z,13.10
2023-02-22T22:54:47.362Z,13.10
2023-02-22T22:57:15.873Z,13.20
2023-02-22T22:59:43.911Z,13.30
2023-02-22T23:02:13.414Z,13.50
2023-02-22T23:04:41.405Z,13.40
2023-02-22T23:07:10.028Z,13.00
2023-02-22T23:09:41.973Z,13.10
2023-02-22T23:12:18.277Z,13.20
2023-02-22T23:14:47.613Z,13.20
2023-02-22T23:17:30.846Z,13.10
2023-02-22T23:19:59.714Z,13.30
2023-02-22T23:22:29.919Z,13.20
2023-02-22T23:25:01.056Z,13.30
2023-02-22T23:27:29.243Z,13.30
2023-02-22T23:29:57.629Z,13.40
2023-02-22T23:32:27.673Z,13.40
2023-02-22T23:34:55.958Z,13.40
2023-02-22T23:37:24.912Z,13.40
2023-02-22T23:39:53.198Z,13.50
2023-02-22T23:42:22.974Z,13.60
2023-02-22T23:44:55.563Z,13.70
2023-02-22T23:47:23.779Z,13.90
2023-02-22T23:49:54.458Z,13.90
2023-02-22T23:52:30.231Z,13.80
2023-02-22T23:54:58.271Z,14.00
2023-02-22T23:57:26.883Z,14.10
2023-02-22T23:59:55.567Z,14.10
